createdAt,value
2018-10-05T08:09:31.364Z,100891.19
2018-10-05T08:13:37.896Z,100882.51
2018-10-05T08:17:44.817Z,100874.70
2018-10-05T08:21:56.367Z,100881.47
2018-10-05T08:26:03.426Z,100880.72
2018-10-05T08:30:18.190Z,100874.25
2018-10-05T08:34:22.755Z,100873.06
2018-10-05T08:38:29.117Z,100863.91
2018-10-05T08:51:11.576Z,100845.68
2018-10-05T08:55:23.919Z,100834.30
2018-10-05T08:59:33.480Z,100837.48
2018-10-05T09:12:36.016Z,100819.23
2018-10-05T18:22:53.704Z,100473.81
2018-10-05T18:31:34.574Z,100474.77
2018-10-05T18:54:19.892Z,100462.53
2018-10-05T18:58:24.873Z,100461.22
2018-10-05T19:02:30.257Z,100462.14
2018-10-05T19:11:12.461Z,100453.34
2018-10-05T19:20:16.388Z,100436.58
2018-10-05T19:28:57.466Z,100444.19
2018-10-05T19:33:02.914Z,100439.80
2018-10-05T19:37:07.683Z,100428.33
2018-10-05T19:41:17.421Z,100434.09
2018-10-05T19:49:59.034Z,100442.95
2018-10-05T19:58:40.089Z,100429.71
2018-10-05T20:02:43.864Z,100434.16
2018-10-05T20:06:47.605Z,100430.19
2018-10-05T20:10:51.859Z,100421.37
2018-10-05T20:14:56.144Z,100411.22
2018-10-05T20:19:03.735Z,100413.47
2018-10-05T20:23:08.994Z,100401.59
2018-10-05T20:27:12.833Z,100405.12
2018-10-05T20:31:16.524Z,100392.34
2018-10-05T20:35:20.340Z,100399.43
2018-10-05T20:39:24.780Z,100392.84
2018-10-05T20:43:30.596Z,100392.41
2018-10-05T20:52:11.635Z,100375.23
2018-10-05T20:56:15.724Z,100375.69
2018-10-05T21:00:19.359Z,100366.88
2018-10-05T21:04:24.067Z,100371.73
2018-10-05T21:08:36.991Z,100372.64
2018-10-05T21:22:17.840Z,100365.16
2018-10-05T21:26:21.678Z,100347.11
2018-10-05T21:30:25.504Z,100355.92
2018-10-05T21:34:30.307Z,100350.21
2018-10-05T21:38:34.019Z,100352.37
2018-10-05T21:42:37.632Z,100356.38
2018-10-05T21:46:41.260Z,100344.92
2018-10-05T21:50:44.977Z,100341.41
2018-10-05T21:54:49.331Z,100347.12
2018-10-05T21:58:53.280Z,100340.50
2018-10-05T22:02:58.072Z,100335.23
2018-10-05T22:07:01.843Z,100340.53
2018-10-05T22:11:05.756Z,100347.15
2018-10-05T22:15:09.510Z,100344.95
2018-10-05T22:19:13.256Z,100337.01
2018-10-05T22:23:18.549Z,100342.30
2018-10-05T22:27:23.017Z,100339.69
2018-10-05T22:31:27.632Z,100333.94
2018-10-05T22:35:33.124Z,100338.80
2018-10-05T22:39:36.870Z,100329.99
2018-10-05T22:43:40.535Z,100337.50
2018-10-05T22:47:44.337Z,100333.08
2018-10-05T22:51:48.005Z,100324.72
2018-10-05T22:55:51.907Z,100318.55
2018-10-05T22:59:56.591Z,100310.61
2018-10-05T23:04:00.309Z,100302.67
2018-10-05T23:08:03.925Z,100302.25
2018-10-05T23:12:08.001Z,100300.47
2018-10-05T23:16:12.852Z,100298.27
2018-10-05T23:20:16.679Z,100291.65
2018-10-05T23:24:20.540Z,100283.28
2018-10-05T23:28:25.293Z,100283.73
2018-10-05T23:32:29.058Z,100292.53
2018-10-05T23:36:32.785Z,100301.36
2018-10-05T23:40:37.032Z,100300.03
2018-10-05T23:44:41.502Z,100295.64
2018-10-05T23:48:45.171Z,100294.76
2018-10-05T23:52:50.092Z,100283.30
2018-10-05T23:56:53.800Z,100283.73
